METAR Data
IDs: Format: Raw Decoded Include TAF

Data at: 0657 UTC 01 Aug 2021

EDLN 010650Z 22005KT 170V270 9999 SCT012 17/14 Q1009